Time;durP1;ratioP1;P1;durP2;ratioP2;P2;SDS_P1;SDS_P2;PMS_P1;PMS_P2;Temp;Humidity;BMP_temperature;BMP_pressure;BME280_temperature;BME280_humidity;BME280_pressure;Samples;Min_cycle;Max_cycle;Signal;HPM_P1;HPM_P2
2022/06/25 00:02:09;;;;;;;10.65;7.78;;;589.40;2432.00;;;;;;4994540;28;20031;-91
2022/06/25 00:07:22;;;;;;;13.48;9.18;;;589.50;2432.00;;;;;;4995684;28;20068;-92
2022/06/25 00:09:48;;;;;;;10.27;7.57;;;589.40;2432.00;;;;;;4994459;28;20037;-91
2022/06/25 00:13:00;;;;;;;11.68;9.15;;;589.20;2432.00;;;;;;5016844;28;20086;-90
2022/06/25 00:15:29;;;;;;;14.70;8.68;;;588.90;2432.00;;;;;;5016748;28;20014;-91
2022/06/25 00:17:56;;;;;;;9.48;8.30;;;564.00;2432.00;;;;;;4997377;28;20037;-91
2022/06/25 00:20:27;;;;;;;12.32;8.50;;;588.90;2432.00;;;;;;4994711;28;20058;-91
2022/06/25 00:22:59;;;;;;;14.30;8.00;;;589.60;2432.00;;;;;;4994263;28;20533;-91
2022/06/25 00:25:25;;;;;;;10.95;8.35;;;589.10;2432.00;;;;;;4994913;28;20018;-91
2022/06/25 00:27:51;;;;;;;10.30;8.73;;;589.10;2432.00;;;;;;4994458;28;20034;-90
2022/06/25 00:30:17;;;;;;;13.80;8.95;;;589.10;2432.00;;;;;;4998184;28;20072;-91
2022/06/25 00:32:46;;;;;;;13.90;8.98;;;589.40;2432.00;;;;;;4998064;28;20026;-90
2022/06/25 00:35:13;;;;;;;12.50;9.60;;;589.10;2432.00;;;;;;4998410;28;20121;-91
2022/06/25 00:37:39;;;;;;;13.38;9.40;;;588.90;2432.00;;;;;;4998516;28;20049;-90
2022/06/25 00:40:06;;;;;;;10.35;8.95;;;588.80;2432.00;;;;;;4998274;28;20030;-90
2022/06/25 00:42:32;;;;;;;9.68;7.85;;;589.00;2432.00;;;;;;4997734;28;20041;-90
2022/06/25 00:44:58;;;;;;;11.27;8.13;;;589.50;2432.00;;;;;;4998096;28;20022;-90
2022/06/25 00:47:25;;;;;;;17.98;9.07;;;589.30;2432.00;;;;;;5018465;28;20054;-90
2022/06/25 00:49:51;;;;;;;10.73;8.60;;;589.30;2432.00;;;;;;5021764;28;20034;-89
2022/06/25 00:52:19;;;;;;;12.15;9.90;;;589.50;2432.00;;;;;;5021200;28;20086;-91
2022/06/25 00:54:50;;;;;;;18.60;10.07;;;589.60;2432.00;;;;;;5021566;28;20022;-90
2022/06/25 00:57:25;;;;;;;14.90;8.70;;;589.50;2432.00;;;;;;5021702;28;20010;-90
2022/06/25 00:59:58;;;;;;;9.50;8.48;;;589.50;2432.00;;;;;;5015959;28;20482;-93
2022/06/25 01:02:24;;;;;;;14.82;9.15;;;589.50;2432.00;;;;;;4998234;28;20125;-90
2022/06/25 01:04:54;;;;;;;9.38;8.38;;;564.10;2432.00;;;;;;4997933;28;20024;-92
2022/06/25 01:07:20;;;;;;;14.05;9.50;;;589.70;2432.00;;;;;;4997674;28;20050;-91
2022/06/25 01:09:53;;;;;;;14.50;11.23;;;589.50;2432.00;;;;;;4997610;28;20049;-92
2022/06/25 01:12:37;;;;;;;13.25;9.95;;;589.40;2432.00;;;;;;4997391;28;20061;-92
2022/06/25 01:15:32;;;;;;;10.68;8.38;;;589.40;2432.00;;;;;;4997678;28;20058;-91
2022/06/25 01:18:11;;;;;;;8.98;7.53;;;589.30;2432.00;;;;;;4995780;28;20057;-91
2022/06/25 01:20:46;;;;;;;10.15;7.82;;;589.20;2432.00;;;;;;4997062;28;20038;-90
2022/06/25 01:23:13;;;;;;;12.15;8.05;;;589.20;2432.00;;;;;;4997401;28;20026;-90
2022/06/25 01:25:42;;;;;;;10.68;8.07;;;589.40;2432.00;;;;;;4997094;28;20033;-90
2022/06/25 01:28:09;;;;;;;10.85;9.20;;;589.20;2432.00;;;;;;4997090;28;20030;-89
2022/06/25 01:30:36;;;;;;;13.40;8.77;;;589.00;2432.00;;;;;;4997254;28;20073;-89
2022/06/25 01:33:01;;;;;;;13.02;8.57;;;588.90;2432.00;;;;;;4997062;28;20061;-89
2022/06/25 01:35:31;;;;;;;12.13;9.13;;;588.90;2432.00;;;;;;4997115;28;20023;-90
2022/06/25 01:38:00;;;;;;;11.55;9.07;;;588.80;2432.00;;;;;;4998155;28;20026;-90
2022/06/25 01:40:28;;;;;;;10.57;9.15;;;589.00;2432.00;;;;;;4996398;28;20030;-89
2022/06/25 01:42:58;;;;;;;12.18;9.10;;;589.00;2432.00;;;;;;4996429;28;20053;-92
2022/06/25 01:45:27;;;;;;;13.75;9.77;;;588.80;2432.00;;;;;;4996715;28;20113;-90
2022/06/25 01:47:54;;;;;;;14.35;9.68;;;564.10;2432.00;;;;;;4996293;28;20130;-89
2022/06/25 01:50:20;;;;;;;11.75;9.45;;;564.10;2432.00;;;;;;4996959;28;20023;-90
2022/06/25 01:52:52;;;;;;;12.60;9.75;;;564.10;2432.00;;;;;;4996339;28;20052;-89
2022/06/25 01:55:39;;;;;;;15.98;11.15;;;538.30;2406.40;;;;;;5002165;28;20041;-91
2022/06/25 01:58:09;;;;;;;12.02;9.68;;;564.10;2432.00;;;;;;5016062;28;20025;-91
2022/06/25 02:00:35;;;;;;;13.85;10.30;;;564.00;2432.00;;;;;;5015844;28;20022;-91
2022/06/25 02:03:01;;;;;;;15.15;9.05;;;;;;;;;;5015981;28;20112;-91
2022/06/25 02:08:14;;;;;;;12.50;9.63;;;;;;;;;;5017239;28;20071;-91
2022/06/25 02:10:41;;;;;;;16.48;10.10;;;;;;;;;;5015939;28;20021;-91
2022/06/25 02:13:07;;;;;;;11.82;10.07;;;564.10;2432.00;;;;;;5015411;28;20030;-90
2022/06/25 02:15:33;;;;;;;11.40;9.88;;;563.90;2432.00;;;;;;5015859;28;20026;-90
2022/06/25 02:18:00;;;;;;;15.93;9.93;;;563.90;2432.00;;;;;;5015857;28;20030;-90
2022/06/25 02:20:26;;;;;;;14.23;9.80;;;563.90;2432.00;;;;;;5015659;28;20443;-90
2022/06/25 02:22:52;;;;;;;15.90;10.38;;;563.90;2432.00;;;;;;5015389;28;20112;-89
2022/06/25 02:25:24;;;;;;;13.55;10.48;;;563.80;2432.00;;;;;;5015563;28;20115;-91
2022/06/25 02:27:50;;;;;;;15.45;9.73;;;563.80;2432.00;;;;;;5015632;28;20076;-91
2022/06/25 02:30:17;;;;;;;12.82;10.23;;;563.60;2432.00;;;;;;5015749;28;20125;-90
2022/06/25 02:32:43;;;;;;;12.95;9.77;;;563.80;2432.00;;;;;;5015696;28;20030;-90
2022/06/25 02:35:12;;;;;;;11.25;9.20;;;563.80;2432.00;;;;;;5015659;28;20030;-91
2022/06/25 02:37:39;;;;;;;11.00;9.50;;;563.90;2432.00;;;;;;5015429;28;20030;-90
2022/06/25 02:40:05;;;;;;;12.25;9.40;;;563.80;2432.00;;;;;;5015549;28;20030;-90
2022/06/25 02:42:38;;;;;;;13.82;11.25;;;563.90;2432.00;;;;;;5015612;28;20026;-90
2022/06/25 02:45:07;;;;;;;15.52;10.60;;;563.90;2432.00;;;;;;4999462;28;20025;-90
2022/06/25 02:47:33;;;;;;;13.55;10.32;;;563.90;2432.00;;;;;;5014924;28;20046;-90
2022/06/25 02:49:59;;;;;;;13.27;11.07;;;563.70;2432.00;;;;;;5015788;28;20096;-90
2022/06/25 02:52:26;;;;;;;13.43;9.75;;;;;;;;;;5014820;28;20084;-91
2022/06/25 02:54:52;;;;;;;13.02;10.63;;;563.50;2432.00;;;;;;5014960;28;20081;-90
2022/06/25 03:00:04;;;;;;;11.32;9.55;;;563.40;2432.00;;;;;;5016292;28;20033;-90
2022/06/25 03:02:30;;;;;;;14.65;10.80;;;563.30;2432.00;;;;;;5014903;28;20053;-90
2022/06/25 03:04:57;;;;;;;11.48;10.10;;;538.50;2406.40;;;;;;5014928;28;20053;-89
2022/06/25 03:07:33;;;;;;;14.35;10.32;;;563.50;2432.00;;;;;;5014820;28;20030;-89
2022/06/25 03:09:59;;;;;;;11.10;9.80;;;538.50;2406.40;;;;;;5014886;28;20022;-88
2022/06/25 03:12:25;;;;;;;12.15;10.43;;;538.50;2406.40;;;;;;5014484;28;20033;-89
2022/06/25 03:14:52;;;;;;;13.15;10.45;;;538.50;2406.40;;;;;;5014575;28;20026;-88
2022/06/25 03:17:18;;;;;;;13.63;10.48;;;563.20;2432.00;;;;;;5014531;28;20062;-87
2022/06/25 03:19:44;;;;;;;17.73;10.63;;;538.50;2406.40;;;;;;5014819;28;20037;-88
2022/06/25 03:22:10;;;;;;;11.80;10.57;;;538.50;2406.40;;;;;;5014518;28;20391;-88
2022/06/25 03:24:36;;;;;;;14.73;10.07;;;538.30;2406.40;;;;;;5014591;28;20025;-89
2022/06/25 03:27:03;;;;;;;11.40;9.98;;;538.40;2406.40;;;;;;5014704;28;20033;-89
2022/06/25 03:29:29;;;;;;;13.75;11.02;;;538.50;2406.40;;;;;;5014635;28;20475;-86
2022/06/25 03:31:56;;;;;;;17.33;10.90;;;563.30;2432.00;;;;;;5014359;28;20034;-89
2022/06/25 03:34:22;;;;;;;11.57;9.80;;;538.20;2406.40;;;;;;5014345;28;20033;-89
2022/06/25 03:36:48;;;;;;;15.15;10.05;;;538.50;2406.40;;;;;;5014357;28;20092;-89
2022/06/25 03:39:14;;;;;;;12.95;9.98;;;588.80;2432.00;;;;;;5014458;28;20025;-88
2022/06/25 03:41:40;;;;;;;15.48;10.43;;;538.50;2406.40;;;;;;5014217;28;20021;-89
2022/06/25 03:44:09;;;;;;;14.77;11.27;;;538.50;2406.40;;;;;;5014198;28;20113;-88
2022/06/25 03:46:37;;;;;;;14.25;10.45;;;538.50;2406.40;;;;;;5016775;28;20109;-88
2022/06/25 03:49:04;;;;;;;15.45;10.77;;;563.30;2432.00;;;;;;5017395;28;20052;-88
2022/06/25 03:51:30;;;;;;;13.50;10.55;;;614.60;2432.00;;;;;;5017338;28;20486;-89
2022/06/25 03:53:57;;;;;;;12.82;11.30;;;563.30;2432.00;;;;;;5017361;28;20429;-88
2022/06/25 03:56:23;;;;;;;12.07;10.45;;;563.40;2432.00;;;;;;5017351;28;20022;-88
2022/06/25 03:58:50;;;;;;;13.25;10.38;;;563.50;2432.00;;;;;;5017457;28;20021;-89
2022/06/25 04:01:16;;;;;;;14.02;10.57;;;563.70;2432.00;;;;;;5016892;28;20053;-88
2022/06/25 04:03:45;;;;;;;15.60;10.77;;;589.60;2432.00;;;;;;5016732;28;20026;-88
2022/06/25 04:06:12;;;;;;;14.88;12.13;;;563.80;2432.00;;;;;;5017499;28;20043;-91
2022/06/25 04:08:38;;;;;;;14.68;12.93;;;563.80;2432.00;;;;;;5017419;28;20025;-90
2022/06/25 04:11:04;;;;;;;17.63;13.15;;;563.80;2432.00;;;;;;5017448;28;20029;-90
2022/06/25 04:13:31;;;;;;;16.20;11.82;;;563.80;2432.00;;;;;;5017768;28;20032;-89
2022/06/25 04:15:57;;;;;;;13.43;11.27;;;563.80;2432.00;;;;;;5017288;28;20025;-90
2022/06/25 04:18:23;;;;;;;16.35;12.15;;;563.90;2432.00;;;;;;5017271;28;20431;-89
2022/06/25 04:20:50;;;;;;;16.88;11.50;;;563.50;2432.00;;;;;;5017373;28;20036;-90
2022/06/25 04:23:16;;;;;;;14.60;10.85;;;563.40;2432.00;;;;;;5017297;28;20036;-89
2022/06/25 04:25:42;;;;;;;14.73;11.48;;;563.50;2432.00;;;;;;5017307;28;20033;-90
2022/06/25 04:30:53;;;;;;;13.50;10.68;;;563.20;2432.00;;;;;;5036696;28;20048;-90
2022/06/25 04:33:28;;;;;;;14.95;11.25;;;563.30;2432.00;;;;;;5018909;28;20025;-89
2022/06/25 04:36:03;;;;;;;16.33;10.88;;;538.10;2406.40;;;;;;5016205;28;20033;-90
2022/06/25 04:38:29;;;;;;;19.45;11.73;;;563.20;2432.00;;;;;;5018524;28;20049;-90
2022/06/25 04:40:55;;;;;;;12.95;11.10;;;563.30;2432.00;;;;;;5018156;28;20061;-87
2022/06/25 04:43:22;;;;;;;12.77;11.45;;;563.90;2432.00;;;;;;5020194;28;20524;-88
2022/06/25 04:45:48;;;;;;;14.57;10.57;;;563.30;2432.00;;;;;;5020947;28;20387;-89
2022/06/25 04:48:17;;;;;;;13.68;10.73;;;563.90;2432.00;;;;;;5021468;28;20041;-87
2022/06/25 04:50:44;;;;;;;17.90;11.77;;;563.30;2432.00;;;;;;5028001;28;20026;-87
2022/06/25 04:53:10;;;;;;;16.50;11.43;;;563.50;2432.00;;;;;;5027387;28;20028;-87
2022/06/25 04:55:39;;;;;;;13.18;10.95;;;563.70;2432.00;;;;;;5029528;28;21133;-87
2022/06/25 04:58:08;;;;;;;13.38;9.93;;;563.40;2432.00;;;;;;5040745;28;20009;-88
2022/06/25 05:00:37;;;;;;;16.73;12.13;;;563.90;2432.00;;;;;;5040676;28;20013;-88
2022/06/25 05:03:12;;;;;;;15.82;11.40;;;563.50;2432.00;;;;;;5040655;28;20025;-88
2022/06/25 05:05:38;;;;;;;14.18;11.02;;;563.60;2432.00;;;;;;5040410;28;20040;-90
2022/06/25 05:08:04;;;;;;;13.70;12.25;;;563.70;2432.00;;;;;;5040766;28;20079;-87
2022/06/25 05:10:33;;;;;;;13.68;10.63;;;563.70;2432.00;;;;;;5021666;28;20538;-91
2022/06/25 05:13:16;;;;;;;16.52;12.50;;;563.70;2432.00;;;;;;5017877;28;20030;-91
2022/06/25 05:15:43;;;;;;;15.20;11.35;;;564.00;2432.00;;;;;;5020411;28;20021;-90
2022/06/25 05:18:11;;;;;;;15.85;11.02;;;564.10;2432.00;;;;;;5021063;28;20095;-90
2022/06/25 05:20:42;;;;;;;17.55;11.60;;;564.10;2432.00;;;;;;5021022;28;20029;-90
2022/06/25 05:23:09;;;;;;;15.65;11.32;;;588.80;2432.00;;;;;;5020942;28;20411;-90
2022/06/25 05:25:41;;;;;;;14.48;11.30;;;563.90;2432.00;;;;;;5019314;28;20030;-89
2022/06/25 05:28:07;;;;;;;13.55;11.90;;;563.80;2432.00;;;;;;5019874;28;20022;-89
2022/06/25 05:30:34;;;;;;;15.23;11.48;;;588.90;2432.00;;;;;;5019939;28;20029;-90
2022/06/25 05:33:01;;;;;;;16.70;11.90;;;589.00;2432.00;;;;;;5020116;28;20056;-90
2022/06/25 05:35:27;;;;;;;13.95;12.25;;;589.00;2432.00;;;;;;5021243;28;20029;-89
2022/06/25 05:37:54;;;;;;;15.57;11.60;;;589.00;2432.00;;;;;;5020244;28;20478;-90
2022/06/25 05:40:21;;;;;;;13.55;11.98;;;589.10;2432.00;;;;;;5020185;28;20040;-89
2022/06/25 05:43:07;;;;;;;17.25;12.27;;;589.30;2432.00;;;;;;5020032;28;20041;-90
2022/06/25 05:45:34;;;;;;;15.07;12.90;;;589.50;2432.00;;;;;;5018843;28;20030;-89
2022/06/25 05:48:04;;;;;;;18.63;12.57;;;589.40;2432.00;;;;;;5019263;28;20068;-90
2022/06/25 05:50:40;;;;;;;18.02;12.32;;;589.60;2432.00;;;;;;5019524;28;20056;-91
2022/06/25 05:53:06;;;;;;;15.25;11.75;;;589.60;2432.00;;;;;;5019466;28;20049;-88
2022/06/25 05:55:32;;;;;;;16.10;12.35;;;589.70;2432.00;;;;;;5019503;28;20026;-87
2022/06/25 05:57:58;;;;;;;15.32;11.85;;;589.70;2432.00;;;;;;5019576;28;20022;-87
2022/06/25 06:00:26;;;;;;;17.20;13.73;;;589.70;2432.00;;;;;;5019713;28;20025;-85
2022/06/25 06:02:52;;;;;;;28.95;24.13;;;614.40;2432.00;;;;;;5018663;28;20056;-86
2022/06/25 06:05:18;;;;;;;20.83;14.27;;;614.50;2432.00;;;;;;5019229;28;20040;-86
2022/06/25 06:07:44;;;;;;;16.52;12.70;;;614.60;2432.00;;;;;;5018901;28;20025;-85
2022/06/25 06:10:09;;;;;;;14.40;12.90;;;614.80;2432.00;;;;;;5019390;28;20025;-88
2022/06/25 06:12:36;;;;;;;18.38;12.93;;;614.80;2432.00;;;;;;5019726;28;20036;-88
2022/06/25 06:15:02;;;;;;;25.10;19.40;;;614.80;2432.00;;;;;;5020332;28;20028;-88
2022/06/25 06:17:28;;;;;;;14.90;12.35;;;615.00;2432.00;;;;;;5020538;28;20030;-88
2022/06/25 06:19:54;;;;;;;17.30;11.05;;;615.10;2432.00;;;;;;5019039;28;20028;-88
2022/06/25 06:22:21;;;;;;;16.40;11.85;;;615.20;2432.00;;;;;;5019036;28;20029;-86
2022/06/25 06:24:47;;;;;;;15.73;12.30;;;615.20;2432.00;;;;;;5018742;28;20041;-91
2022/06/25 06:27:12;;;;;;;15.13;13.00;;;615.30;2432.00;;;;;;5017960;28;20108;-86
2022/06/25 06:29:38;;;;;;;16.75;13.13;;;615.30;2432.00;;;;;;5018367;28;20443;-87
2022/06/25 06:32:05;;;;;;;18.15;13.77;;;640.10;2432.00;;;;;;5018860;28;20108;-84
2022/06/25 06:34:30;;;;;;;19.63;14.10;;;640.70;2432.00;;;;;;5033128;28;20060;-83
2022/06/25 06:36:56;;;;;;;20.25;13.43;;;640.40;2432.00;;;;;;5042355;28;20009;-84
2022/06/25 06:39:23;;;;;;;15.25;11.73;;;640.60;2432.00;;;;;;5022355;28;20054;-84
2022/06/25 06:41:49;;;;;;;14.07;11.93;;;640.60;2432.00;;;;;;4998233;28;20040;-88
2022/06/25 06:44:14;;;;;;;14.57;11.90;;;640.70;2432.00;;;;;;4998480;28;20025;-85
2022/06/25 06:46:41;;;;;;;13.13;11.73;;;640.80;2432.00;;;;;;4998300;28;20056;-85
2022/06/25 06:49:09;;;;;;;18.33;13.02;;;640.90;2432.00;;;;;;4998281;28;20026;-82
2022/06/25 06:51:35;;;;;;;16.75;12.70;;;665.70;2432.00;;;;;;4998090;28;20030;-83
2022/06/25 06:54:01;;;;;;;21.48;12.50;;;640.90;2432.00;;;;;;4998156;28;20029;-87
2022/06/25 06:56:27;;;;;;;23.10;12.13;;;665.60;2432.00;;;;;;4998390;28;20049;-84
2022/06/25 06:58:53;;;;;;;16.13;12.55;;;665.80;2432.00;;;;;;4997758;28;20029;-86
2022/06/25 07:01:19;;;;;;;15.35;12.05;;;666.00;2432.00;;;;;;4998252;28;20034;-86
2022/06/25 07:03:45;;;;;;;17.23;12.60;;;666.20;2432.00;;;;;;4998093;28;20353;-85
2022/06/25 07:06:11;;;;;;;22.45;12.02;;;666.50;2432.00;;;;;;4998110;28;20030;-85
2022/06/25 07:08:37;;;;;;;18.65;11.70;;;691.30;2432.00;;;;;;4998166;28;20026;-84
2022/06/25 07:11:28;;;;;;;16.35;11.35;;;691.40;2432.00;;;;;;4998159;28;20468;-85
2022/06/25 07:13:49;;;;;;;20.85;12.70;;;691.50;2432.00;;;;;;5015013;28;20472;-81
2022/06/25 07:16:14;;;;;;;17.63;12.98;;;691.70;2432.00;;;;;;5011654;28;20032;-84
2022/06/25 07:18:40;;;;;;;19.50;12.75;;;691.80;2432.00;;;;;;4997464;28;20032;-84
2022/06/25 07:21:06;;;;;;;15.85;12.57;;;691.80;2432.00;;;;;;4997700;28;20129;-83
2022/06/25 07:23:32;;;;;;;20.58;14.40;;;691.90;2432.00;;;;;;4997388;28;20116;-83
2022/06/25 07:26:02;;;;;;;16.02;12.30;;;692.00;2432.00;;;;;;5013486;28;20057;-82
2022/06/25 07:28:27;;;;;;;13.00;11.70;;;691.80;2432.00;;;;;;5016762;28;20042;-84
2022/06/25 07:30:53;;;;;;;17.73;13.35;;;691.50;2432.00;;;;;;5019957;28;20026;-83
2022/06/25 07:33:19;;;;;;;19.45;12.77;;;691.80;2432.00;;;;;;5012380;28;20025;-83
2022/06/25 07:35:45;;;;;;;15.48;12.80;;;692.10;2432.00;;;;;;5013078;28;20026;-83
2022/06/25 07:38:13;;;;;;;19.52;13.95;;;716.90;2432.00;;;;;;5005703;28;20068;-85
2022/06/25 07:40:39;;;;;;;17.20;12.95;;;716.90;2432.00;;;;;;5010440;28;20479;-85
2022/06/25 07:43:05;;;;;;;22.40;13.55;;;717.10;2432.00;;;;;;5006142;28;20042;-85
2022/06/25 07:45:32;;;;;;;17.75;13.05;;;717.10;2432.00;;;;;;5036155;28;20029;-85
2022/06/25 07:47:58;;;;;;;18.23;12.70;;;716.90;2432.00;;;;;;5035726;28;20045;-83
2022/06/25 07:53:08;;;;;;;18.83;14.20;;;717.30;2432.00;;;;;;5034158;28;20422;-87
2022/06/25 07:55:34;;;;;;;17.77;12.55;;;717.70;2432.00;;;;;;5016674;28;20029;-85
2022/06/25 07:58:00;;;;;;;19.83;13.65;;;717.60;2432.00;;;;;;5016478;28;20022;-85
2022/06/25 08:00:26;;;;;;;17.38;12.23;;;717.70;2432.00;;;;;;5013209;28;20033;-85
2022/06/25 08:02:52;;;;;;;16.05;11.60;;;717.70;2432.00;;;;;;4996846;28;20403;-85
2022/06/25 08:05:18;;;;;;;18.38;12.32;;;742.60;2432.00;;;;;;4996702;28;20040;-85
2022/06/25 08:07:46;;;;;;;16.60;11.95;;;742.80;2432.00;;;;;;4996916;28;20025;-85
2022/06/25 08:10:12;;;;;;;21.27;12.88;;;742.90;2432.00;;;;;;4996998;28;20048;-85
2022/06/25 08:12:38;;;;;;;18.02;12.10;;;743.00;2432.00;;;;;;4996463;28;20026;-85
2022/06/25 08:15:05;;;;;;;22.75;13.73;;;742.80;2432.00;;;;;;4996721;28;20026;-87
2022/06/25 08:17:31;;;;;;;21.83;12.77;;;743.10;2432.00;;;;;;5010136;28;20075;-85
2022/06/25 08:19:57;;;;;;;20.38;11.50;;;743.00;2432.00;;;;;;5016228;28;20034;-86
2022/06/25 08:22:23;;;;;;;15.57;11.70;;;743.30;2432.00;;;;;;5016354;28;20064;-86
2022/06/25 08:24:49;;;;;;;15.75;11.60;;;;;;;;;;5014238;28;20072;-87
2022/06/25 08:27:15;;;;;;;21.42;11.18;;;;;;;;;;4996832;28;20026;-86
2022/06/25 08:29:42;;;;;;;23.85;13.80;;;768.40;2380.80;;;;;;4996346;28;20060;-86
2022/06/25 08:32:08;;;;;;;21.35;14.20;;;768.50;2380.80;;;;;;5022216;28;20459;-87
2022/06/25 08:34:34;;;;;;;23.83;15.25;;;768.80;2355.20;;;;;;5010421;28;20026;-86
2022/06/25 08:37:00;;;;;;;25.55;16.63;;;768.90;2329.60;;;;;;4996864;28;20117;-88
2022/06/25 08:39:26;;;;;;;21.27;11.93;;;793.70;2355.20;;;;;;4996716;28;20494;-86
2022/06/25 08:41:52;;;;;;;25.50;10.27;;;793.90;2304.00;;;;;;4996935;28;20026;-86
2022/06/25 08:44:18;;;;;;;14.40;9.55;;;793.70;2278.40;;;;;;4996597;28;20052;-85
2022/06/25 08:46:44;;;;;;;18.20;9.68;;;793.60;2304.00;;;;;;5012138;28;20496;-87
2022/06/25 08:49:11;;;;;;;20.23;9.88;;;768.70;2278.40;;;;;;5013424;28;20049;-87
2022/06/25 08:51:38;;;;;;;18.45;10.38;;;768.80;2252.80;;;;;;5000382;28;20409;-87
2022/06/25 08:54:08;;;;;;;23.38;13.60;;;793.70;2278.40;;;;;;5000366;28;20088;-85
2022/06/25 08:56:36;;;;;;;19.02;11.63;;;793.90;2278.40;;;;;;5000145;28;20026;-87
2022/06/25 08:59:02;;;;;;;21.77;9.98;;;794.30;2278.40;;;;;;4999963;28;20471;-92
2022/06/25 09:01:28;;;;;;;21.77;11.00;;;793.80;2278.40;;;;;;4999835;28;20496;-87
2022/06/25 09:03:55;;;;;;;22.58;10.57;;;793.80;2355.20;;;;;;4999916;28;20057;-85
2022/06/25 09:06:23;;;;;;;21.55;11.18;;;793.80;2304.00;;;;;;4999971;28;20029;-87
2022/06/25 09:09:15;;;;;;;20.00;11.40;;;794.00;2304.00;;;;;;4999801;28;20464;-86
2022/06/25 09:11:57;;;;;;;22.60;10.27;;;794.40;2329.60;;;;;;4999804;28;20041;-84
2022/06/25 09:14:29;;;;;;;20.95;10.13;;;794.40;2227.20;;;;;;5014459;28;20045;-86
2022/06/25 09:16:58;;;;;;;16.35;9.55;;;794.20;2252.80;;;;;;5022672;28;20032;-85
2022/06/25 09:19:31;;;;;;;26.25;10.55;;;794.30;2227.20;;;;;;5022879;28;20029;-86
2022/06/25 09:21:58;;;;;;;16.80;11.20;;;794.50;2278.40;;;;;;5010715;28;20038;-86
2022/06/25 09:24:47;;;;;;;18.83;12.77;;;819.20;2227.20;;;;;;5015880;28;20459;-82
2022/06/25 09:27:17;;;;;;;18.75;10.07;;;819.50;2227.20;;;;;;4999508;28;20022;-85
2022/06/25 09:29:46;;;;;;;18.63;10.98;;;819.60;2201.60;;;;;;4999782;28;20022;-85
2022/06/25 09:32:13;;;;;;;16.50;10.93;;;819.90;2150.40;;;;;;5008474;28;20026;-84
2022/06/25 09:34:39;;;;;;;19.13;10.80;;;820.00;2124.80;;;;;;5000780;28;20045;-86
2022/06/25 09:37:16;;;;;;;20.80;10.50;;;820.00;2124.80;;;;;;5001353;28;20029;-85
2022/06/25 09:39:42;;;;;;;18.23;11.23;;;819.70;2124.80;;;;;;5000076;28;20045;-85
2022/06/25 09:42:23;;;;;;;20.90;10.95;;;819.80;2150.40;;;;;;4999721;28;20074;-85
2022/06/25 09:44:57;;;;;;;19.43;9.97;;;820.10;2150.40;;;;;;4999926;28;20120;-86
2022/06/25 09:47:24;;;;;;;19.95;8.30;;;844.80;2124.80;;;;;;4999810;28;20042;-84
2022/06/25 09:49:50;;;;;;;25.08;9.32;;;844.80;2099.20;;;;;;4999869;28;20073;-85
2022/06/25 09:52:16;;;;;;;21.25;9.82;;;845.00;2099.20;;;;;;4999800;28;20022;-84
2022/06/25 09:54:42;;;;;;;16.92;9.35;;;844.80;2124.80;;;;;;4999379;28;20120;-86
2022/06/25 09:57:09;;;;;;;17.27;9.05;;;844.90;2099.20;;;;;;4999135;28;20030;-84
2022/06/25 09:59:38;;;;;;;19.20;9.60;;;845.30;2099.20;;;;;;4999851;28;20037;-85
2022/06/25 10:02:04;;;;;;;20.35;9.63;;;845.30;2073.60;;;;;;5001662;28;20022;-85
2022/06/25 10:04:31;;;;;;;19.42;9.73;;;845.50;2048.00;;;;;;5010322;28;20053;-86
2022/06/25 10:07:02;;;;;;;19.88;10.43;;;845.30;2048.00;;;;;;5015259;28;20032;-85
2022/06/25 10:09:28;;;;;;;20.67;8.73;;;845.20;2048.00;;;;;;5015269;28;20048;-84
2022/06/25 10:11:55;;;;;;;18.60;9.32;;;820.00;2073.60;;;;;;5017687;28;20021;-86
2022/06/25 10:14:21;;;;;;;16.85;9.82;;;819.80;2099.20;;;;;;5009079;28;20423;-86
2022/06/25 10:16:47;;;;;;;16.33;9.32;;;819.90;2099.20;;;;;;5012450;28;20029;-86
2022/06/25 10:19:16;;;;;;;20.85;9.65;;;820.10;2099.20;;;;;;5006783;28;20053;-84
2022/06/25 10:21:42;;;;;;;17.65;10.32;;;844.90;2099.20;;;;;;5003510;28;20034;-85
2022/06/25 10:24:09;;;;;;;25.27;9.75;;;845.20;2124.80;;;;;;5015278;28;20025;-85
2022/06/25 10:26:36;;;;;;;17.23;9.90;;;845.60;2073.60;;;;;;5007022;28;20511;-85
2022/06/25 10:29:03;;;;;;;15.15;9.13;;;;;;;;;;5012589;28;20025;-86
2022/06/25 10:31:30;;;;;;;18.98;9.70;;;870.70;1971.20;;;;;;5003899;28;20026;-86
2022/06/25 10:34:02;;;;;;;18.30;9.05;;;870.90;1945.60;;;;;;5016073;28;20034;-85
2022/06/25 10:36:48;;;;;;;19.27;10.32;;;870.90;1945.60;;;;;;5010361;28;20066;-85
2022/06/25 10:39:22;;;;;;;20.70;10.73;;;871.10;1971.20;;;;;;5011099;28;20025;-87
2022/06/25 10:44:52;;;;;;;23.85;10.98;;;;;;;;;;5021336;28;20052;-86
2022/06/25 10:47:19;;;;;;;16.65;9.30;;;;;;;;;;5016599;28;20107;-87
2022/06/25 10:49:45;;;;;;;17.50;9.55;;;;;;;;;;5013384;28;20479;-86
2022/06/25 10:52:19;;;;;;;17.85;9.55;;;;;;;;;;5010396;28;20030;-86
2022/06/25 10:54:46;;;;;;;17.98;9.32;;;;;;;;;;5024782;28;20364;-83
2022/06/25 10:57:12;;;;;;;14.52;7.82;;;;;;;;;;5001752;28;20026;-85
2022/06/25 10:59:41;;;;;;;16.38;9.57;;;;;;;;;;5016335;28;20029;-84
2022/06/25 11:02:10;;;;;;;17.50;8.27;;;;;;;;;;5015438;28;20030;-84
2022/06/25 11:04:38;;;;;;;19.73;8.98;;;;;;;;;;5015280;28;20022;-86
2022/06/25 11:07:07;;;;;;;15.07;8.00;;;;;;;;;;5009969;28;20029;-88
2022/06/25 11:09:34;;;;;;;18.30;9.45;;;;;;;;;;5008854;28;20018;-88
2022/06/25 11:12:00;;;;;;;16.38;8.65;;;;;;;;;;5014288;28;20034;-86
2022/06/25 11:14:26;;;;;;;16.33;8.05;;;896.30;1792.00;;;;;;4998781;28;20033;-88
2022/06/25 11:16:55;;;;;;;13.57;7.85;;;871.30;1792.00;;;;;;4997448;28;20029;-85
2022/06/25 11:19:23;;;;;;;13.38;7.72;;;871.20;1817.60;;;;;;4998318;28;20442;-86
2022/06/25 11:21:50;;;;;;;15.80;8.07;;;870.80;1817.60;;;;;;4998800;28;20033;-87
2022/06/25 11:24:23;;;;;;;14.75;7.93;;;870.80;1843.20;;;;;;4997961;28;20529;-83
2022/06/25 11:29:49;;;;;;;15.20;7.03;;;870.40;1843.20;;;;;;5015212;28;20040;-84
2022/06/25 11:32:26;;;;;;;11.15;7.43;;;845.50;1868.80;;;;;;4997366;28;20034;-85
2022/06/25 11:35:00;;;;;;;14.63;7.25;;;845.00;1894.40;;;;;;5010316;28;20013;-85
2022/06/25 11:37:28;;;;;;;18.08;8.00;;;845.10;1894.40;;;;;;5021509;28;20125;-83
2022/06/25 11:39:54;;;;;;;18.45;8.88;;;845.10;1894.40;;;;;;5020432;28;20037;-82
2022/06/25 11:42:20;;;;;;;17.50;7.35;;;845.10;1894.40;;;;;;5000869;28;20056;-86
2022/06/25 11:44:52;;;;;;;15.88;8.00;;;820.10;1868.80;;;;;;5000168;28;20022;-85
2022/06/25 11:47:26;;;;;;;29.27;9.10;;;844.90;1920.00;;;;;;5002573;28;20113;-82
2022/06/25 11:49:53;;;;;;;43.95;13.38;;;819.80;2022.40;;;;;;4996630;28;20022;-85
2022/06/25 11:52:21;;;;;;;38.75;12.35;;;819.30;2278.40;;;;;;4997116;28;20037;-85
2022/06/25 11:54:48;;;;;;;35.03;12.95;;;768.60;2432.00;;;;;;4996840;28;20064;-88
2022/06/25 11:57:24;;;;;;;21.02;7.93;;;742.60;2432.00;;;;;;4996771;28;20045;-83
2022/06/25 11:59:52;;;;;;;13.95;6.13;;;691.90;2380.80;;;;;;4996802;28;20117;-84
2022/06/25 12:02:19;;;;;;;20.13;8.77;;;666.50;2432.00;;;;;;4997073;28;20029;-83
2022/06/25 12:05:00;;;;;;;22.17;8.43;;;666.00;2432.00;;;;;;4996800;28;20030;-82
2022/06/25 12:07:28;;;;;;;19.02;8.30;;;665.80;2432.00;;;;;;4996613;28;20027;-80
2022/06/25 12:09:57;;;;;;;15.02;9.20;;;666.00;2432.00;;;;;;4996487;28;20030;-82
2022/06/25 12:12:23;;;;;;;18.30;10.15;;;666.40;2432.00;;;;;;4996436;28;20411;-81
2022/06/25 12:14:50;;;;;;;14.73;9.40;;;;;;;;;;5012542;28;20030;-83
2022/06/25 12:17:16;;;;;;;17.50;8.27;;;;;;;;;;4996448;28;20040;-82
2022/06/25 12:19:48;;;;;;;17.98;8.93;;;;;;;;;;4996709;28;20075;-84
2022/06/25 12:22:20;;;;;;;19.90;8.37;;;;;;;;;;4996694;28;20033;-84
2022/06/25 12:24:47;;;;;;;14.73;7.60;;;;;;;;;;4998955;28;20033;-86
2022/06/25 12:27:13;;;;;;;15.27;8.95;;;;;;;;;;5001417;28;20526;-85
2022/06/25 12:29:39;;;;;;;18.42;10.13;;;;;;;;;;5001210;28;20173;-87
2022/06/25 12:32:05;;;;;;;18.50;9.00;;;;;;;;;;5000956;28;20057;-87
2022/06/25 12:34:31;;;;;;;11.88;7.13;;;;;;;;;;5000579;28;20021;-85
2022/06/25 12:36:59;;;;;;;20.35;7.78;;;;;;;;;;5000455;28;20499;-85
2022/06/25 12:39:31;;;;;;;16.10;8.20;;;;;;;;;;5000061;28;20029;-85
2022/06/25 12:42:02;;;;;;;16.20;9.55;;;;;;;;;;5000351;28;20026;-87